sensor_id;sensor_type;location;lat;lon;timestamp;P1;durP1;ratioP1;P2;durP2;ratioP2
39948;SDS011;29070;48.102;-1.652;2023-07-24T00:01:43;3.93;;;1.33;;
39948;SDS011;29070;48.102;-1.652;2023-07-24T00:06:43;2.93;;;1.37;;
39948;SDS011;29070;48.102;-1.652;2023-07-24T00:11:43;3.67;;;1.20;;
39948;SDS011;29070;48.102;-1.652;2023-07-24T00:16:44;2.80;;;1.00;;
39948;SDS011;29070;48.102;-1.652;2023-07-24T00:21:44;3.63;;;1.30;;
39948;SDS011;29070;48.102;-1.652;2023-07-24T00:26:44;4.30;;;1.13;;
39948;SDS011;29070;48.102;-1.652;2023-07-24T00:31:44;3.97;;;1.20;;
39948;SDS011;29070;48.102;-1.652;2023-07-24T00:36:45;2.90;;;1.20;;
39948;SDS011;29070;48.102;-1.652;2023-07-24T00:41:45;2.20;;;1.10;;
39948;SDS011;29070;48.102;-1.652;2023-07-24T00:46:45;2.97;;;1.33;;
39948;SDS011;29070;48.102;-1.652;2023-07-24T00:51:46;3.55;;;1.40;;
39948;SDS011;29070;48.102;-1.652;2023-07-24T00:56:47;3.88;;;1.50;;
39948;SDS011;29070;48.102;-1.652;2023-07-24T01:01:48;8.63;;;1.65;;
39948;SDS011;29070;48.102;-1.652;2023-07-24T01:06:48;3.45;;;1.45;;
39948;SDS011;29070;48.102;-1.652;2023-07-24T01:11:56;3.85;;;1.67;;
39948;SDS011;29070;48.102;-1.652;2023-07-24T01:16:58;6.07;;;1.73;;
39948;SDS011;29070;48.102;-1.652;2023-07-24T01:27:25;6.10;;;2.22;;
39948;SDS011;29070;48.102;-1.652;2023-07-24T01:32:26;3.78;;;1.90;;
39948;SDS011;29070;48.102;-1.652;2023-07-24T01:37:26;7.30;;;2.17;;
39948;SDS011;29070;48.102;-1.652;2023-07-24T01:42:28;6.97;;;2.17;;
39948;SDS011;29070;48.102;-1.652;2023-07-24T01:47:28;3.95;;;1.55;;
39948;SDS011;29070;48.102;-1.652;2023-07-24T01:52:29;3.60;;;1.70;;
39948;SDS011;29070;48.102;-1.652;2023-07-24T01:57:30;9.23;;;2.50;;
39948;SDS011;29070;48.102;-1.652;2023-07-24T02:02:30;4.57;;;2.30;;
39948;SDS011;29070;48.102;-1.652;2023-07-24T02:07:30;6.30;;;2.20;;
39948;SDS011;29070;48.102;-1.652;2023-07-24T02:12:31;4.63;;;2.00;;
39948;SDS011;29070;48.102;-1.652;2023-07-24T02:17:31;6.57;;;2.23;;
39948;SDS011;29070;48.102;-1.652;2023-07-24T02:22:32;5.72;;;2.33;;
39948;SDS011;29070;48.102;-1.652;2023-07-24T02:27:32;5.53;;;2.40;;
39948;SDS011;29070;48.102;-1.652;2023-07-24T02:32:34;4.65;;;2.00;;
39948;SDS011;29070;48.102;-1.652;2023-07-24T02:37:34;7.60;;;1.90;;
39948;SDS011;29070;48.102;-1.652;2023-07-24T02:42:34;4.57;;;2.00;;
39948;SDS011;29070;48.102;-1.652;2023-07-24T02:47:35;5.53;;;2.27;;
39948;SDS011;29070;48.102;-1.652;2023-07-24T02:52:35;5.20;;;1.80;;
39948;SDS011;29070;48.102;-1.652;2023-07-24T02:57:35;6.23;;;1.97;;
39948;SDS011;29070;48.102;-1.652;2023-07-24T03:02:36;4.57;;;1.77;;
39948;SDS011;29070;48.102;-1.652;2023-07-24T03:07:37;7.70;;;1.92;;
39948;SDS011;29070;48.102;-1.652;2023-07-24T03:12:37;4.00;;;1.70;;
39948;SDS011;29070;48.102;-1.652;2023-07-24T03:17:38;10.67;;;2.40;;
39948;SDS011;29070;48.102;-1.652;2023-07-24T03:22:38;6.03;;;2.10;;
39948;SDS011;29070;48.102;-1.652;2023-07-24T03:27:40;4.13;;;2.38;;
39948;SDS011;29070;48.102;-1.652;2023-07-24T03:32:41;7.22;;;1.73;;
39948;SDS011;29070;48.102;-1.652;2023-07-24T03:37:41;4.17;;;1.60;;
39948;SDS011;29070;48.102;-1.652;2023-07-24T03:42:42;4.43;;;1.33;;
39948;SDS011;29070;48.102;-1.652;2023-07-24T03:47:42;4.55;;;1.92;;
39948;SDS011;29070;48.102;-1.652;2023-07-24T03:52:42;4.40;;;1.50;;
39948;SDS011;29070;48.102;-1.652;2023-07-24T03:57:43;6.27;;;1.63;;
39948;SDS011;29070;48.102;-1.652;2023-07-24T04:02:43;5.80;;;1.80;;
39948;SDS011;29070;48.102;-1.652;2023-07-24T04:07:43;3.13;;;1.60;;
39948;SDS011;29070;48.102;-1.652;2023-07-24T04:12:44;4.63;;;1.73;;
39948;SDS011;29070;48.102;-1.652;2023-07-24T04:17:44;4.47;;;1.47;;
39948;SDS011;29070;48.102;-1.652;2023-07-24T04:22:44;4.37;;;1.50;;
39948;SDS011;29070;48.102;-1.652;2023-07-24T04:27:45;5.93;;;1.73;;
39948;SDS011;29070;48.102;-1.652;2023-07-24T04:32:45;6.17;;;1.73;;
39948;SDS011;29070;48.102;-1.652;2023-07-24T04:37:46;6.18;;;1.90;;
39948;SDS011;29070;48.102;-1.652;2023-07-24T04:42:46;6.33;;;1.67;;
39948;SDS011;29070;48.102;-1.652;2023-07-24T04:47:47;5.50;;;1.73;;
39948;SDS011;29070;48.102;-1.652;2023-07-24T04:52:47;6.13;;;1.80;;
39948;SDS011;29070;48.102;-1.652;2023-07-24T04:57:48;5.83;;;1.90;;
39948;SDS011;29070;48.102;-1.652;2023-07-24T05:02:48;2.37;;;1.50;;
39948;SDS011;29070;48.102;-1.652;2023-07-24T05:07:48;6.47;;;1.77;;
39948;SDS011;29070;48.102;-1.652;2023-07-24T05:12:49;2.80;;;1.57;;
39948;SDS011;29070;48.102;-1.652;2023-07-24T05:17:49;4.40;;;1.53;;
39948;SDS011;29070;48.102;-1.652;2023-07-24T05:22:49;8.20;;;1.70;;
39948;SDS011;29070;48.102;-1.652;2023-07-24T05:27:50;6.73;;;2.00;;
39948;SDS011;29070;48.102;-1.652;2023-07-24T05:32:50;5.03;;;1.80;;
39948;SDS011;29070;48.102;-1.652;2023-07-24T05:37:50;3.17;;;1.83;;
39948;SDS011;29070;48.102;-1.652;2023-07-24T05:42:51;5.50;;;1.40;;
39948;SDS011;29070;48.102;-1.652;2023-07-24T05:47:51;6.83;;;1.47;;
39948;SDS011;29070;48.102;-1.652;2023-07-24T05:52:51;4.50;;;1.40;;
39948;SDS011;29070;48.102;-1.652;2023-07-24T05:57:52;5.27;;;1.30;;
39948;SDS011;29070;48.102;-1.652;2023-07-24T06:02:52;4.73;;;1.77;;
39948;SDS011;29070;48.102;-1.652;2023-07-24T06:07:54;6.32;;;1.70;;
39948;SDS011;29070;48.102;-1.652;2023-07-24T06:12:54;4.13;;;1.67;;
39948;SDS011;29070;48.102;-1.652;2023-07-24T06:17:54;3.17;;;1.40;;
39948;SDS011;29070;48.102;-1.652;2023-07-24T06:22:55;5.50;;;1.73;;
39948;SDS011;29070;48.102;-1.652;2023-07-24T06:27:55;5.70;;;1.63;;
39948;SDS011;29070;48.102;-1.652;2023-07-24T06:32:56;3.83;;;1.50;;
39948;SDS011;29070;48.102;-1.652;2023-07-24T06:37:56;6.30;;;1.80;;
39948;SDS011;29070;48.102;-1.652;2023-07-24T06:42:56;5.60;;;1.40;;
39948;SDS011;29070;48.102;-1.652;2023-07-24T06:47:57;6.28;;;1.58;;
39948;SDS011;29070;48.102;-1.652;2023-07-24T06:52:57;8.83;;;1.60;;
39948;SDS011;29070;48.102;-1.652;2023-07-24T06:57:57;8.37;;;1.90;;
39948;SDS011;29070;48.102;-1.652;2023-07-24T07:02:58;5.20;;;1.87;;
39948;SDS011;29070;48.102;-1.652;2023-07-24T07:07:58;6.73;;;2.10;;
39948;SDS011;29070;48.102;-1.652;2023-07-24T07:12:59;6.10;;;1.70;;
39948;SDS011;29070;48.102;-1.652;2023-07-24T07:17:59;8.63;;;2.58;;
39948;SDS011;29070;48.102;-1.652;2023-07-24T07:22:59;7.27;;;2.57;;
39948;SDS011;29070;48.102;-1.652;2023-07-24T07:28:00;5.00;;;1.63;;
39948;SDS011;29070;48.102;-1.652;2023-07-24T07:33:00;6.87;;;2.00;;
39948;SDS011;29070;48.102;-1.652;2023-07-24T07:38:01;4.57;;;1.80;;
39948;SDS011;29070;48.102;-1.652;2023-07-24T07:43:02;6.50;;;1.50;;
39948;SDS011;29070;48.102;-1.652;2023-07-24T07:48:03;3.20;;;1.67;;
39948;SDS011;29070;48.102;-1.652;2023-07-24T07:53:03;7.28;;;1.70;;
39948;SDS011;29070;48.102;-1.652;2023-07-24T07:58:04;5.93;;;1.87;;
39948;SDS011;29070;48.102;-1.652;2023-07-24T08:03:04;2.40;;;1.43;;
39948;SDS011;29070;48.102;-1.652;2023-07-24T08:08:04;6.20;;;1.20;;
39948;SDS011;29070;48.102;-1.652;2023-07-24T08:13:05;4.13;;;1.53;;
39948;SDS011;29070;48.102;-1.652;2023-07-24T08:18:07;13.00;;;1.75;;
39948;SDS011;29070;48.102;-1.652;2023-07-24T08:23:08;5.57;;;1.20;;
39948;SDS011;29070;48.102;-1.652;2023-07-24T08:28:08;4.50;;;1.00;;
39948;SDS011;29070;48.102;-1.652;2023-07-24T08:33:08;3.80;;;1.10;;
39948;SDS011;29070;48.102;-1.652;2023-07-24T08:38:08;4.33;;;1.33;;
39948;SDS011;29070;48.102;-1.652;2023-07-24T08:43:09;4.97;;;1.07;;
39948;SDS011;29070;48.102;-1.652;2023-07-24T08:48:09;5.27;;;1.27;;
